sensor_id;sensor_type;location;lat;lon;timestamp;P1;durP1;ratioP1;P2;durP2;ratioP2
2972;SDS011;1496;51.404;7.232;2022-12-13T00:01:21;33.93;;;16.60;;
2972;SDS011;1496;51.404;7.232;2022-12-13T00:03:47;23.30;;;14.33;;
2972;SDS011;1496;51.404;7.232;2022-12-13T00:06:13;30.10;;;15.40;;
2972;SDS011;1496;51.404;7.232;2022-12-13T00:08:39;25.80;;;15.73;;
2972;SDS011;1496;51.404;7.232;2022-12-13T00:11:06;29.47;;;13.40;;
2972;SDS011;1496;51.404;7.232;2022-12-13T00:13:34;23.27;;;13.10;;
2972;SDS011;1496;51.404;7.232;2022-12-13T00:16:01;20.97;;;11.50;;
2972;SDS011;1496;51.404;7.232;2022-12-13T00:18:29;21.50;;;12.60;;
2972;SDS011;1496;51.404;7.232;2022-12-13T00:20:55;26.10;;;14.17;;
2972;SDS011;1496;51.404;7.232;2022-12-13T00:23:22;26.50;;;14.03;;
2972;SDS011;1496;51.404;7.232;2022-12-13T00:25:47;27.20;;;15.87;;
2972;SDS011;1496;51.404;7.232;2022-12-13T00:28:15;26.67;;;15.50;;
2972;SDS011;1496;51.404;7.232;2022-12-13T00:30:41;25.57;;;14.93;;
2972;SDS011;1496;51.404;7.232;2022-12-13T00:33:07;27.20;;;15.27;;
2972;SDS011;1496;51.404;7.232;2022-12-13T00:35:33;22.97;;;13.63;;
2972;SDS011;1496;51.404;7.232;2022-12-13T00:38:04;29.80;;;15.50;;
2972;SDS011;1496;51.404;7.232;2022-12-13T00:40:29;24.83;;;14.63;;
2972;SDS011;1496;51.404;7.232;2022-12-13T00:42:55;32.17;;;14.10;;
2972;SDS011;1496;51.404;7.232;2022-12-13T00:45:21;33.87;;;16.07;;
2972;SDS011;1496;51.404;7.232;2022-12-13T00:47:46;28.90;;;15.93;;
2972;SDS011;1496;51.404;7.232;2022-12-13T00:50:12;24.67;;;15.40;;
2972;SDS011;1496;51.404;7.232;2022-12-13T00:52:38;25.73;;;16.07;;
2972;SDS011;1496;51.404;7.232;2022-12-13T00:55:03;26.13;;;15.30;;
2972;SDS011;1496;51.404;7.232;2022-12-13T00:57:29;31.33;;;16.17;;
2972;SDS011;1496;51.404;7.232;2022-12-13T00:59:55;31.20;;;16.70;;
2972;SDS011;1496;51.404;7.232;2022-12-13T01:02:21;28.83;;;14.87;;
2972;SDS011;1496;51.404;7.232;2022-12-13T01:04:49;27.80;;;15.60;;
2972;SDS011;1496;51.404;7.232;2022-12-13T01:07:15;27.93;;;15.17;;
2972;SDS011;1496;51.404;7.232;2022-12-13T01:09:40;25.77;;;16.03;;
2972;SDS011;1496;51.404;7.232;2022-12-13T01:12:06;31.90;;;16.23;;
2972;SDS011;1496;51.404;7.232;2022-12-13T01:14:35;30.97;;;16.50;;
2972;SDS011;1496;51.404;7.232;2022-12-13T01:17:03;32.67;;;14.50;;
2972;SDS011;1496;51.404;7.232;2022-12-13T01:19:30;28.27;;;16.00;;
2972;SDS011;1496;51.404;7.232;2022-12-13T01:21:57;24.13;;;14.67;;
2972;SDS011;1496;51.404;7.232;2022-12-13T01:24:24;24.50;;;14.70;;
2972;SDS011;1496;51.404;7.232;2022-12-13T01:26:51;29.60;;;16.00;;
2972;SDS011;1496;51.404;7.232;2022-12-13T01:29:18;24.60;;;13.53;;
2972;SDS011;1496;51.404;7.232;2022-12-13T01:31:44;26.40;;;14.30;;
2972;SDS011;1496;51.404;7.232;2022-12-13T01:34:11;26.90;;;15.40;;
2972;SDS011;1496;51.404;7.232;2022-12-13T01:36:38;27.07;;;13.90;;
2972;SDS011;1496;51.404;7.232;2022-12-13T01:39:05;27.57;;;14.90;;
2972;SDS011;1496;51.404;7.232;2022-12-13T01:41:32;21.93;;;13.40;;
2972;SDS011;1496;51.404;7.232;2022-12-13T01:43:58;22.50;;;13.30;;
2972;SDS011;1496;51.404;7.232;2022-12-13T01:46:27;29.43;;;16.23;;
2972;SDS011;1496;51.404;7.232;2022-12-13T01:48:59;26.77;;;16.27;;
2972;SDS011;1496;51.404;7.232;2022-12-13T01:51:38;28.47;;;14.73;;
2972;SDS011;1496;51.404;7.232;2022-12-13T01:54:13;24.73;;;14.03;;
2972;SDS011;1496;51.404;7.232;2022-12-13T01:56:42;25.37;;;15.20;;
2972;SDS011;1496;51.404;7.232;2022-12-13T01:59:11;30.90;;;15.83;;
2972;SDS011;1496;51.404;7.232;2022-12-13T02:01:39;30.50;;;13.27;;
2972;SDS011;1496;51.404;7.232;2022-12-13T02:04:05;27.50;;;17.20;;
2972;SDS011;1496;51.404;7.232;2022-12-13T02:06:33;31.63;;;16.77;;
2972;SDS011;1496;51.404;7.232;2022-12-13T02:09:03;23.40;;;14.90;;
2972;SDS011;1496;51.404;7.232;2022-12-13T02:11:30;27.40;;;15.60;;
2972;SDS011;1496;51.404;7.232;2022-12-13T02:13:58;22.37;;;13.90;;
2972;SDS011;1496;51.404;7.232;2022-12-13T02:16:31;24.60;;;14.27;;
2972;SDS011;1496;51.404;7.232;2022-12-13T02:22:31;26.53;;;13.97;;
2972;SDS011;1496;51.404;7.232;2022-12-13T02:30:50;25.03;;;15.07;;
2972;SDS011;1496;51.404;7.232;2022-12-13T02:36:28;27.03;;;15.67;;
2972;SDS011;1496;51.404;7.232;2022-12-13T02:38:57;25.97;;;14.60;;
2972;SDS011;1496;51.404;7.232;2022-12-13T02:41:39;28.53;;;15.20;;
2972;SDS011;1496;51.404;7.232;2022-12-13T02:44:14;23.30;;;14.70;;
2972;SDS011;1496;51.404;7.232;2022-12-13T02:46:46;27.17;;;15.27;;
2972;SDS011;1496;51.404;7.232;2022-12-13T02:49:16;26.30;;;14.03;;
2972;SDS011;1496;51.404;7.232;2022-12-13T02:51:43;25.90;;;14.30;;
2972;SDS011;1496;51.404;7.232;2022-12-13T02:54:09;26.80;;;14.73;;
2972;SDS011;1496;51.404;7.232;2022-12-13T02:56:35;27.37;;;14.97;;
2972;SDS011;1496;51.404;7.232;2022-12-13T02:59:02;29.70;;;15.57;;
2972;SDS011;1496;51.404;7.232;2022-12-13T03:07:28;27.03;;;15.33;;
2972;SDS011;1496;51.404;7.232;2022-12-13T03:10:05;25.40;;;16.43;;
2972;SDS011;1496;51.404;7.232;2022-12-13T03:12:40;21.63;;;14.10;;
2972;SDS011;1496;51.404;7.232;2022-12-13T03:15:42;26.20;;;15.40;;
2972;SDS011;1496;51.404;7.232;2022-12-13T03:18:18;25.03;;;14.27;;
2972;SDS011;1496;51.404;7.232;2022-12-13T03:20:46;28.40;;;15.43;;
2972;SDS011;1496;51.404;7.232;2022-12-13T03:23:21;22.60;;;13.07;;
2972;SDS011;1496;51.404;7.232;2022-12-13T03:25:48;31.83;;;15.53;;
2972;SDS011;1496;51.404;7.232;2022-12-13T03:28:17;21.90;;;14.63;;
2972;SDS011;1496;51.404;7.232;2022-12-13T03:30:43;27.23;;;14.80;;
2972;SDS011;1496;51.404;7.232;2022-12-13T03:33:09;26.13;;;14.90;;
2972;SDS011;1496;51.404;7.232;2022-12-13T03:35:34;24.83;;;14.33;;
2972;SDS011;1496;51.404;7.232;2022-12-13T03:38:01;28.53;;;14.90;;
2972;SDS011;1496;51.404;7.232;2022-12-13T03:40:28;25.40;;;15.90;;
2972;SDS011;1496;51.404;7.232;2022-12-13T03:42:54;25.77;;;14.10;;
2972;SDS011;1496;51.404;7.232;2022-12-13T03:45:20;32.20;;;15.60;;
2972;SDS011;1496;51.404;7.232;2022-12-13T03:47:45;30.03;;;16.53;;
2972;SDS011;1496;51.404;7.232;2022-12-13T03:50:11;28.30;;;13.97;;
2972;SDS011;1496;51.404;7.232;2022-12-13T03:52:37;27.27;;;14.37;;
2972;SDS011;1496;51.404;7.232;2022-12-13T03:55:02;30.87;;;14.83;;
2972;SDS011;1496;51.404;7.232;2022-12-13T03:57:29;28.77;;;16.70;;
2972;SDS011;1496;51.404;7.232;2022-12-13T03:59:55;34.90;;;15.13;;
2972;SDS011;1496;51.404;7.232;2022-12-13T04:02:21;29.30;;;16.80;;
2972;SDS011;1496;51.404;7.232;2022-12-13T04:04:47;31.67;;;17.80;;
2972;SDS011;1496;51.404;7.232;2022-12-13T04:07:12;30.93;;;15.20;;
2972;SDS011;1496;51.404;7.232;2022-12-13T04:09:38;29.13;;;15.30;;
2972;SDS011;1496;51.404;7.232;2022-12-13T04:12:04;26.97;;;14.10;;
2972;SDS011;1496;51.404;7.232;2022-12-13T04:14:48;29.67;;;15.90;;
2972;SDS011;1496;51.404;7.232;2022-12-13T04:17:13;22.37;;;13.67;;
2972;SDS011;1496;51.404;7.232;2022-12-13T04:19:39;32.00;;;15.17;;
2972;SDS011;1496;51.404;7.232;2022-12-13T04:22:05;27.53;;;15.37;;
2972;SDS011;1496;51.404;7.232;2022-12-13T04:24:30;21.20;;;12.80;;
2972;SDS011;1496;51.404;7.232;2022-12-13T04:26:56;25.63;;;12.93;;
2972;SDS011;1496;51.404;7.232;2022-12-13T04:29:21;24.80;;;11.70;;
2972;SDS011;1496;51.404;7.232;2022-12-13T04:31:47;20.50;;;11.83;;
2972;SDS011;1496;51.404;7.232;2022-12-13T04:34:13;21.57;;;11.70;;
2972;SDS011;1496;51.404;7.232;2022-12-13T04:36:38;32.40;;;15.00;;
2972;SDS011;1496;51.404;7.232;2022-12-13T04:39:06;25.53;;;14.90;;
2972;SDS011;1496;51.404;7.232;2022-12-13T04:41:35;25.07;;;13.97;;
2972;SDS011;1496;51.404;7.232;2022-12-13T04:44:02;23.90;;;14.20;;
2972;SDS011;1496;51.404;7.232;2022-12-13T04:46:29;27.20;;;13.93;;
2972;SDS011;1496;51.404;7.232;2022-12-13T04:48:55;19.60;;;13.20;;
2972;SDS011;1496;51.404;7.232;2022-12-13T04:51:21;29.67;;;14.70;;
2972;SDS011;1496;51.404;7.232;2022-12-13T04:53:46;21.63;;;12.30;;
2972;SDS011;1496;51.404;7.232;2022-12-13T04:56:12;29.53;;;17.00;;
2972;SDS011;1496;51.404;7.232;2022-12-13T04:58:38;26.63;;;14.03;;
2972;SDS011;1496;51.404;7.232;2022-12-13T05:01:07;24.70;;;13.60;;
2972;SDS011;1496;51.404;7.232;2022-12-13T05:03:33;29.63;;;14.97;;
2972;SDS011;1496;51.404;7.232;2022-12-13T05:06:03;23.80;;;13.60;;
2972;SDS011;1496;51.404;7.232;2022-12-13T05:08:33;29.83;;;14.80;;
2972;SDS011;1496;51.404;7.232;2022-12-13T05:10:59;28.07;;;11.90;;
2972;SDS011;1496;51.404;7.232;2022-12-13T05:13:26;32.23;;;14.70;;
2972;SDS011;1496;51.404;7.232;2022-12-13T05:15:58;23.67;;;13.23;;
2972;SDS011;1496;51.404;7.232;2022-12-13T05:18:26;24.37;;;12.60;;
2972;SDS011;1496;51.404;7.232;2022-12-13T05:20:52;26.13;;;12.30;;
2972;SDS011;1496;51.404;7.232;2022-12-13T05:23:18;22.03;;;12.30;;
2972;SDS011;1496;51.404;7.232;2022-12-13T05:25:45;22.73;;;14.50;;
2972;SDS011;1496;51.404;7.232;2022-12-13T05:28:11;23.00;;;14.30;;
2972;SDS011;1496;51.404;7.232;2022-12-13T05:30:38;29.27;;;11.73;;
2972;SDS011;1496;51.404;7.232;2022-12-13T05:33:04;26.03;;;12.30;;
2972;SDS011;1496;51.404;7.232;2022-12-13T05:35:29;24.03;;;12.40;;
2972;SDS011;1496;51.404;7.232;2022-12-13T05:37:55;24.00;;;12.97;;
2972;SDS011;1496;51.404;7.232;2022-12-13T05:40:21;28.53;;;13.70;;
2972;SDS011;1496;51.404;7.232;2022-12-13T05:42:47;28.60;;;14.00;;
2972;SDS011;1496;51.404;7.232;2022-12-13T05:45:13;33.63;;;16.80;;
2972;SDS011;1496;51.404;7.232;2022-12-13T05:47:41;26.30;;;14.57;;
2972;SDS011;1496;51.404;7.232;2022-12-13T05:50:07;32.30;;;16.80;;
2972;SDS011;1496;51.404;7.232;2022-12-13T05:52:33;28.07;;;15.60;;
2972;SDS011;1496;51.404;7.232;2022-12-13T05:54:58;30.40;;;15.73;;
2972;SDS011;1496;51.404;7.232;2022-12-13T05:57:24;29.80;;;16.50;;
2972;SDS011;1496;51.404;7.232;2022-12-13T05:59:49;30.47;;;15.77;;
2972;SDS011;1496;51.404;7.232;2022-12-13T06:02:15;33.53;;;16.07;;
2972;SDS011;1496;51.404;7.232;2022-12-13T06:04:44;26.80;;;13.90;;
2972;SDS011;1496;51.404;7.232;2022-12-13T06:07:10;22.43;;;13.53;;
2972;SDS011;1496;51.404;7.232;2022-12-13T06:09:36;25.87;;;13.90;;
2972;SDS011;1496;51.404;7.232;2022-12-13T06:12:02;26.00;;;15.27;;
2972;SDS011;1496;51.404;7.232;2022-12-13T06:14:27;28.70;;;14.57;;
2972;SDS011;1496;51.404;7.232;2022-12-13T06:16:53;23.93;;;14.17;;
2972;SDS011;1496;51.404;7.232;2022-12-13T06:19:20;24.10;;;13.43;;
2972;SDS011;1496;51.404;7.232;2022-12-13T06:21:46;25.90;;;12.20;;
2972;SDS011;1496;51.404;7.232;2022-12-13T06:24:13;23.00;;;13.00;;
2972;SDS011;1496;51.404;7.232;2022-12-13T06:26:40;20.30;;;11.70;;
2972;SDS011;1496;51.404;7.232;2022-12-13T06:29:06;22.83;;;10.70;;
2972;SDS011;1496;51.404;7.232;2022-12-13T06:31:31;15.93;;;9.77;;
2972;SDS011;1496;51.404;7.232;2022-12-13T06:34:00;17.33;;;11.67;;
2972;SDS011;1496;51.404;7.232;2022-12-13T06:36:26;23.63;;;10.70;;
2972;SDS011;1496;51.404;7.232;2022-12-13T06:38:52;22.17;;;12.40;;
2972;SDS011;1496;51.404;7.232;2022-12-13T06:41:17;21.40;;;11.43;;
2972;SDS011;1496;51.404;7.232;2022-12-13T06:43:44;22.47;;;11.93;;
2972;SDS011;1496;51.404;7.232;2022-12-13T06:46:12;17.97;;;10.43;;
2972;SDS011;1496;51.404;7.232;2022-12-13T06:48:38;20.87;;;12.07;;
2972;SDS011;1496;51.404;7.232;2022-12-13T06:51:07;25.30;;;12.73;;
2972;SDS011;1496;51.404;7.232;2022-12-13T06:53:34;27.50;;;11.87;;
2972;SDS011;1496;51.404;7.232;2022-12-13T06:56:02;31.27;;;12.20;;
2972;SDS011;1496;51.404;7.232;2022-12-13T06:58:29;23.80;;;11.70;;
2972;SDS011;1496;51.404;7.232;2022-12-13T07:01:07;20.37;;;10.90;;
2972;SDS011;1496;51.404;7.232;2022-12-13T07:03:35;21.37;;;11.50;;
2972;SDS011;1496;51.404;7.232;2022-12-13T07:06:34;25.97;;;13.20;;
2972;SDS011;1496;51.404;7.232;2022-12-13T07:08:55;24.10;;;11.70;;
2972;SDS011;1496;51.404;7.232;2022-12-13T07:11:22;22.03;;;12.10;;
2972;SDS011;1496;51.404;7.232;2022-12-13T07:13:51;22.60;;;10.87;;
2972;SDS011;1496;51.404;7.232;2022-12-13T07:16:17;27.20;;;13.70;;
2972;SDS011;1496;51.404;7.232;2022-12-13T07:18:43;26.03;;;11.10;;
2972;SDS011;1496;51.404;7.232;2022-12-13T07:21:10;23.67;;;13.63;;
2972;SDS011;1496;51.404;7.232;2022-12-13T07:23:37;22.03;;;12.00;;
2972;SDS011;1496;51.404;7.232;2022-12-13T07:26:04;20.20;;;11.43;;
2972;SDS011;1496;51.404;7.232;2022-12-13T07:28:31;24.80;;;13.40;;
2972;SDS011;1496;51.404;7.232;2022-12-13T07:31:01;22.43;;;12.90;;
2972;SDS011;1496;51.404;7.232;2022-12-13T07:33:27;22.07;;;11.53;;
2972;SDS011;1496;51.404;7.232;2022-12-13T07:36:04;25.50;;;12.50;;
2972;SDS011;1496;51.404;7.232;2022-12-13T07:38:38;29.00;;;11.40;;
2972;SDS011;1496;51.404;7.232;2022-12-13T07:41:04;21.20;;;9.97;;
2972;SDS011;1496;51.404;7.232;2022-12-13T07:43:30;19.87;;;10.93;;
2972;SDS011;1496;51.404;7.232;2022-12-13T07:45:57;19.80;;;13.53;;
2972;SDS011;1496;51.404;7.232;2022-12-13T07:48:23;28.43;;;11.33;;
2972;SDS011;1496;51.404;7.232;2022-12-13T07:50:50;16.37;;;9.37;;
2972;SDS011;1496;51.404;7.232;2022-12-13T07:53:16;26.07;;;9.70;;
2972;SDS011;1496;51.404;7.232;2022-12-13T07:55:42;24.33;;;9.57;;
2972;SDS011;1496;51.404;7.232;2022-12-13T08:00:35;23.03;;;11.13;;
2972;SDS011;1496;51.404;7.232;2022-12-13T08:03:05;17.30;;;8.60;;
2972;SDS011;1496;51.404;7.232;2022-12-13T08:05:33;21.63;;;10.10;;
2972;SDS011;1496;51.404;7.232;2022-12-13T08:07:59;21.37;;;10.87;;
2972;SDS011;1496;51.404;7.232;2022-12-13T08:10:25;21.03;;;9.90;;
2972;SDS011;1496;51.404;7.232;2022-12-13T08:12:51;23.77;;;11.87;;
2972;SDS011;1496;51.404;7.232;2022-12-13T08:15:17;19.50;;;10.70;;
2972;SDS011;1496;51.404;7.232;2022-12-13T08:17:43;22.13;;;11.10;;
2972;SDS011;1496;51.404;7.232;2022-12-13T08:20:08;24.40;;;12.50;;
2972;SDS011;1496;51.404;7.232;2022-12-13T08:22:35;20.03;;;11.13;;
2972;SDS011;1496;51.404;7.232;2022-12-13T08:25:00;25.67;;;12.30;;
2972;SDS011;1496;51.404;7.232;2022-12-13T08:27:26;32.17;;;15.23;;
2972;SDS011;1496;51.404;7.232;2022-12-13T08:29:52;25.00;;;13.70;;
2972;SDS011;1496;51.404;7.232;2022-12-13T08:32:18;20.23;;;12.93;;
2972;SDS011;1496;51.404;7.232;2022-12-13T08:34:44;29.97;;;14.07;;
2972;SDS011;1496;51.404;7.232;2022-12-13T08:37:10;22.50;;;12.00;;
2972;SDS011;1496;51.404;7.232;2022-12-13T08:39:37;23.40;;;11.80;;
2972;SDS011;1496;51.404;7.232;2022-12-13T08:42:06;21.50;;;13.23;;
2972;SDS011;1496;51.404;7.232;2022-12-13T08:44:35;29.13;;;15.20;;
2972;SDS011;1496;51.404;7.232;2022-12-13T08:47:00;42.87;;;18.07;;
2972;SDS011;1496;51.404;7.232;2022-12-13T08:49:26;29.67;;;14.83;;
2972;SDS011;1496;51.404;7.232;2022-12-13T08:51:52;23.07;;;12.53;;
2972;SDS011;1496;51.404;7.232;2022-12-13T08:54:17;24.53;;;13.70;;
2972;SDS011;1496;51.404;7.232;2022-12-13T08:56:43;31.63;;;13.37;;
2972;SDS011;1496;51.404;7.232;2022-12-13T08:59:08;18.50;;;10.53;;
2972;SDS011;1496;51.404;7.232;2022-12-13T09:01:34;24.23;;;11.13;;
2972;SDS011;1496;51.404;7.232;2022-12-13T09:04:00;15.90;;;10.70;;
2972;SDS011;1496;51.404;7.232;2022-12-13T09:06:25;20.37;;;12.80;;
2972;SDS011;1496;51.404;7.232;2022-12-13T09:08:51;23.17;;;14.00;;
2972;SDS011;1496;51.404;7.232;2022-12-13T09:11:18;20.30;;;11.70;;
2972;SDS011;1496;51.404;7.232;2022-12-13T09:13:44;19.20;;;10.63;;
2972;SDS011;1496;51.404;7.232;2022-12-13T09:16:11;29.00;;;13.90;;
2972;SDS011;1496;51.404;7.232;2022-12-13T09:18:39;23.33;;;13.47;;
2972;SDS011;1496;51.404;7.232;2022-12-13T09:21:08;23.53;;;12.93;;
2972;SDS011;1496;51.404;7.232;2022-12-13T09:23:35;23.27;;;14.17;;
2972;SDS011;1496;51.404;7.232;2022-12-13T09:26:01;17.93;;;11.83;;
2972;SDS011;1496;51.404;7.232;2022-12-13T09:28:27;22.73;;;11.90;;
2972;SDS011;1496;51.404;7.232;2022-12-13T09:30:54;23.97;;;15.03;;
2972;SDS011;1496;51.404;7.232;2022-12-13T09:33:20;26.93;;;15.63;;
2972;SDS011;1496;51.404;7.232;2022-12-13T09:35:46;30.90;;;15.80;;
2972;SDS011;1496;51.404;7.232;2022-12-13T09:38:11;26.33;;;15.80;;
2972;SDS011;1496;51.404;7.232;2022-12-13T09:40:38;26.73;;;15.33;;
2972;SDS011;1496;51.404;7.232;2022-12-13T09:43:09;26.67;;;14.67;;
2972;SDS011;1496;51.404;7.232;2022-12-13T09:45:39;26.83;;;13.97;;
2972;SDS011;1496;51.404;7.232;2022-12-13T09:48:09;31.33;;;16.20;;
2972;SDS011;1496;51.404;7.232;2022-12-13T09:50:40;30.43;;;15.50;;
2972;SDS011;1496;51.404;7.232;2022-12-13T09:53:06;24.60;;;14.47;;
2972;SDS011;1496;51.404;7.232;2022-12-13T09:55:43;22.63;;;12.57;;
2972;SDS011;1496;51.404;7.232;2022-12-13T09:58:13;23.57;;;13.73;;
2972;SDS011;1496;51.404;7.232;2022-12-13T10:00:42;32.50;;;14.47;;
2972;SDS011;1496;51.404;7.232;2022-12-13T10:03:13;25.27;;;14.57;;
2972;SDS011;1496;51.404;7.232;2022-12-13T10:05:42;23.63;;;13.70;;
2972;SDS011;1496;51.404;7.232;2022-12-13T10:08:13;33.33;;;14.97;;
2972;SDS011;1496;51.404;7.232;2022-12-13T10:10:41;28.67;;;16.87;;
2972;SDS011;1496;51.404;7.232;2022-12-13T10:16:11;26.57;;;14.17;;
2972;SDS011;1496;51.404;7.232;2022-12-13T10:18:39;28.07;;;14.70;;
2972;SDS011;1496;51.404;7.232;2022-12-13T10:21:08;26.97;;;15.27;;
2972;SDS011;1496;51.404;7.232;2022-12-13T10:26:45;27.67;;;16.03;;
2972;SDS011;1496;51.404;7.232;2022-12-13T10:29:11;23.70;;;13.23;;
2972;SDS011;1496;51.404;7.232;2022-12-13T10:31:37;19.27;;;13.00;;
2972;SDS011;1496;51.404;7.232;2022-12-13T10:34:06;23.00;;;13.17;;
2972;SDS011;1496;51.404;7.232;2022-12-13T10:36:46;30.73;;;14.73;;
2972;SDS011;1496;51.404;7.232;2022-12-13T10:39:35;30.03;;;14.83;;
2972;SDS011;1496;51.404;7.232;2022-12-13T10:42:14;26.93;;;14.37;;
2972;SDS011;1496;51.404;7.232;2022-12-13T10:44:44;23.50;;;13.30;;
2972;SDS011;1496;51.404;7.232;2022-12-13T10:52:38;26.87;;;14.33;;
2972;SDS011;1496;51.404;7.232;2022-12-13T10:55:27;32.27;;;14.47;;
2972;SDS011;1496;51.404;7.232;2022-12-13T10:58:02;25.83;;;15.17;;
2972;SDS011;1496;51.404;7.232;2022-12-13T11:00:40;33.20;;;13.67;;
2972;SDS011;1496;51.404;7.232;2022-12-13T11:03:27;24.47;;;15.00;;
2972;SDS011;1496;51.404;7.232;2022-12-13T11:06:05;24.37;;;13.23;;
2972;SDS011;1496;51.404;7.232;2022-12-13T11:08:37;26.67;;;14.67;;
2972;SDS011;1496;51.404;7.232;2022-12-13T11:11:03;28.50;;;14.40;;
2972;SDS011;1496;51.404;7.232;2022-12-13T11:13:50;24.47;;;14.33;;
2972;SDS011;1496;51.404;7.232;2022-12-13T11:16:33;27.43;;;14.80;;
2972;SDS011;1496;51.404;7.232;2022-12-13T11:19:07;20.57;;;11.60;;
2972;SDS011;1496;51.404;7.232;2022-12-13T11:21:47;20.60;;;12.70;;
2972;SDS011;1496;51.404;7.232;2022-12-13T11:24:27;33.67;;;14.03;;
2972;SDS011;1496;51.404;7.232;2022-12-13T11:26:56;24.53;;;12.40;;
2972;SDS011;1496;51.404;7.232;2022-12-13T11:29:35;21.93;;;12.77;;
2972;SDS011;1496;51.404;7.232;2022-12-13T11:35:03;18.97;;;10.80;;
2972;SDS011;1496;51.404;7.232;2022-12-13T11:37:32;20.40;;;11.10;;
2972;SDS011;1496;51.404;7.232;2022-12-13T11:40:24;22.40;;;13.33;;
2972;SDS011;1496;51.404;7.232;2022-12-13T11:42:54;26.37;;;14.07;;
2972;SDS011;1496;51.404;7.232;2022-12-13T11:45:47;19.37;;;12.70;;
2972;SDS011;1496;51.404;7.232;2022-12-13T11:48:21;21.47;;;12.83;;
2972;SDS011;1496;51.404;7.232;2022-12-13T11:50:51;23.67;;;13.60;;
2972;SDS011;1496;51.404;7.232;2022-12-13T11:53:23;23.70;;;13.37;;
2972;SDS011;1496;51.404;7.232;2022-12-13T11:58:59;25.77;;;14.10;;
2972;SDS011;1496;51.404;7.232;2022-12-13T12:01:46;19.13;;;11.70;;
2972;SDS011;1496;51.404;7.232;2022-12-13T12:07:18;21.43;;;13.17;;
2972;SDS011;1496;51.404;7.232;2022-12-13T12:09:50;24.10;;;11.90;;
2972;SDS011;1496;51.404;7.232;2022-12-13T12:12:23;22.00;;;12.37;;
2972;SDS011;1496;51.404;7.232;2022-12-13T12:14:57;23.80;;;13.20;;
2972;SDS011;1496;51.404;7.232;2022-12-13T12:17:29;26.33;;;13.97;;
2972;SDS011;1496;51.404;7.232;2022-12-13T12:19:56;24.77;;;13.40;;
2972;SDS011;1496;51.404;7.232;2022-12-13T12:27:58;21.37;;;12.60;;
2972;SDS011;1496;51.404;7.232;2022-12-13T12:30:33;29.07;;;13.00;;
2972;SDS011;1496;51.404;7.232;2022-12-13T12:35:55;25.00;;;11.47;;
2972;SDS011;1496;51.404;7.232;2022-12-13T12:38:43;23.80;;;13.00;;
2972;SDS011;1496;51.404;7.232;2022-12-13T12:48:02;18.97;;;11.10;;
2972;SDS011;1496;51.404;7.232;2022-12-13T12:50:13;18.53;;;10.77;;
2972;SDS011;1496;51.404;7.232;2022-12-13T12:55:29;20.20;;;10.60;;
2972;SDS011;1496;51.404;7.232;2022-12-13T13:00:50;20.10;;;11.43;;
2972;SDS011;1496;51.404;7.232;2022-12-13T13:03:32;17.57;;;9.57;;
2972;SDS011;1496;51.404;7.232;2022-12-13T13:06:01;19.43;;;11.10;;
2972;SDS011;1496;51.404;7.232;2022-12-13T13:08:42;21.43;;;9.90;;
2972;SDS011;1496;51.404;7.232;2022-12-13T13:11:24;17.27;;;10.27;;
2972;SDS011;1496;51.404;7.232;2022-12-13T13:14:23;25.80;;;11.30;;
2972;SDS011;1496;51.404;7.232;2022-12-13T13:16:52;23.93;;;12.30;;
2972;SDS011;1496;51.404;7.232;2022-12-13T13:21:46;21.30;;;12.20;;
2972;SDS011;1496;51.404;7.232;2022-12-13T13:24:20;23.77;;;12.90;;
2972;SDS011;1496;51.404;7.232;2022-12-13T13:26:51;30.03;;;11.57;;
2972;SDS011;1496;51.404;7.232;2022-12-13T13:31:54;17.50;;;10.00;;
2972;SDS011;1496;51.404;7.232;2022-12-13T13:34:21;20.10;;;10.93;;
2972;SDS011;1496;51.404;7.232;2022-12-13T13:36:53;20.93;;;11.00;;
2972;SDS011;1496;51.404;7.232;2022-12-13T13:49:56;19.17;;;11.43;;
2972;SDS011;1496;51.404;7.232;2022-12-13T13:52:31;23.50;;;12.13;;
2972;SDS011;1496;51.404;7.232;2022-12-13T14:01:17;21.30;;;11.70;;
2972;SDS011;1496;51.404;7.232;2022-12-13T14:06:43;27.87;;;12.60;;
2972;SDS011;1496;51.404;7.232;2022-12-13T14:21:03;20.80;;;12.20;;
2972;SDS011;1496;51.404;7.232;2022-12-13T14:23:49;22.13;;;12.83;;
2972;SDS011;1496;51.404;7.232;2022-12-13T14:29:17;19.33;;;11.03;;
2972;SDS011;1496;51.404;7.232;2022-12-13T14:31:52;20.53;;;11.70;;
2972;SDS011;1496;51.404;7.232;2022-12-13T14:34:30;21.73;;;12.33;;
2972;SDS011;1496;51.404;7.232;2022-12-13T14:37:04;26.30;;;12.43;;
2972;SDS011;1496;51.404;7.232;2022-12-13T14:39:42;24.03;;;12.00;;
2972;SDS011;1496;51.404;7.232;2022-12-13T14:44:55;21.63;;;12.30;;
2972;SDS011;1496;51.404;7.232;2022-12-13T14:47:40;27.27;;;14.20;;
2972;SDS011;1496;51.404;7.232;2022-12-13T14:50:07;26.37;;;13.73;;
2972;SDS011;1496;51.404;7.232;2022-12-13T14:52:34;24.60;;;12.90;;
2972;SDS011;1496;51.404;7.232;2022-12-13T14:55:04;25.60;;;14.77;;
2972;SDS011;1496;51.404;7.232;2022-12-13T14:57:31;24.13;;;14.90;;
2972;SDS011;1496;51.404;7.232;2022-12-13T14:59:59;28.03;;;13.67;;
2972;SDS011;1496;51.404;7.232;2022-12-13T15:02:51;25.37;;;13.47;;
2972;SDS011;1496;51.404;7.232;2022-12-13T15:05:23;26.50;;;14.10;;
2972;SDS011;1496;51.404;7.232;2022-12-13T15:07:52;21.87;;;13.10;;
2972;SDS011;1496;51.404;7.232;2022-12-13T15:10:23;26.80;;;14.67;;
2972;SDS011;1496;51.404;7.232;2022-12-13T15:12:57;26.57;;;13.83;;
2972;SDS011;1496;51.404;7.232;2022-12-13T15:20:51;25.17;;;14.30;;
2972;SDS011;1496;51.404;7.232;2022-12-13T15:23:28;24.53;;;12.33;;
2972;SDS011;1496;51.404;7.232;2022-12-13T15:26:11;21.90;;;12.57;;
2972;SDS011;1496;51.404;7.232;2022-12-13T15:28:40;24.40;;;13.73;;
2972;SDS011;1496;51.404;7.232;2022-12-13T15:31:07;29.40;;;12.57;;
2972;SDS011;1496;51.404;7.232;2022-12-13T15:33:34;28.80;;;14.00;;
2972;SDS011;1496;51.404;7.232;2022-12-13T15:41:25;25.77;;;12.97;;
2972;SDS011;1496;51.404;7.232;2022-12-13T15:44:14;21.07;;;13.40;;
2972;SDS011;1496;51.404;7.232;2022-12-13T15:46:50;21.80;;;12.50;;
2972;SDS011;1496;51.404;7.232;2022-12-13T15:49:22;23.73;;;13.30;;
2972;SDS011;1496;51.404;7.232;2022-12-13T15:51:56;25.70;;;12.20;;
2972;SDS011;1496;51.404;7.232;2022-12-13T15:54:28;24.93;;;12.73;;
2972;SDS011;1496;51.404;7.232;2022-12-13T15:59:44;23.73;;;12.40;;
2972;SDS011;1496;51.404;7.232;2022-12-13T16:02:18;24.77;;;13.47;;
2972;SDS011;1496;51.404;7.232;2022-12-13T16:04:46;23.77;;;11.67;;
2972;SDS011;1496;51.404;7.232;2022-12-13T16:07:23;24.20;;;12.33;;
2972;SDS011;1496;51.404;7.232;2022-12-13T16:09:52;22.03;;;11.60;;
2972;SDS011;1496;51.404;7.232;2022-12-13T16:12:23;28.83;;;12.47;;
2972;SDS011;1496;51.404;7.232;2022-12-13T16:14:54;16.53;;;9.60;;
2972;SDS011;1496;51.404;7.232;2022-12-13T16:17:36;20.17;;;10.43;;
2972;SDS011;1496;51.404;7.232;2022-12-13T16:20:07;25.80;;;12.43;;
2972;SDS011;1496;51.404;7.232;2022-12-13T16:22:39;23.90;;;15.40;;
2972;SDS011;1496;51.404;7.232;2022-12-13T16:25:08;23.30;;;13.43;;
2972;SDS011;1496;51.404;7.232;2022-12-13T16:27:37;24.63;;;13.73;;
2972;SDS011;1496;51.404;7.232;2022-12-13T16:33:14;38.67;;;17.80;;
2972;SDS011;1496;51.404;7.232;2022-12-13T16:35:39;52.37;;;22.03;;
2972;SDS011;1496;51.404;7.232;2022-12-13T16:38:07;26.00;;;13.00;;
2972;SDS011;1496;51.404;7.232;2022-12-13T16:40:35;26.17;;;13.40;;
2972;SDS011;1496;51.404;7.232;2022-12-13T16:43:01;25.00;;;14.43;;
2972;SDS011;1496;51.404;7.232;2022-12-13T16:45:30;21.57;;;13.77;;
2972;SDS011;1496;51.404;7.232;2022-12-13T16:48:04;19.70;;;11.93;;
2972;SDS011;1496;51.404;7.232;2022-12-13T16:50:31;25.93;;;14.03;;
2972;SDS011;1496;51.404;7.232;2022-12-13T16:52:57;23.70;;;12.17;;
2972;SDS011;1496;51.404;7.232;2022-12-13T16:55:23;24.80;;;14.00;;
2972;SDS011;1496;51.404;7.232;2022-12-13T16:57:58;29.10;;;15.20;;
2972;SDS011;1496;51.404;7.232;2022-12-13T17:00:26;20.90;;;12.47;;
2972;SDS011;1496;51.404;7.232;2022-12-13T17:02:53;31.10;;;14.20;;